sensor_id;sensor_type;location;lat;lon;timestamp;pressure;altitude;pressure_sealevel;temperature;humidity
48555;BME280;34336;48.270;16.716;2023-05-08T00:01:16;109325.25;;;18.16;73.28
48555;BME280;34336;48.270;16.716;2023-05-08T00:03:43;109325.25;;;18.16;73.16
48555;BME280;34336;48.270;16.716;2023-05-08T00:06:10;109325.25;;;18.16;73.62
48555;BME280;34336;48.270;16.716;2023-05-08T00:08:37;109325.25;;;18.16;73.18
48555;BME280;34336;48.270;16.716;2023-05-08T00:11:04;109325.25;;;18.16;74.20
48555;BME280;34336;48.270;16.716;2023-05-08T00:13:31;109325.25;;;18.16;73.88
48555;BME280;34336;48.270;16.716;2023-05-08T00:15:57;109325.25;;;18.16;73.72
48555;BME280;34336;48.270;16.716;2023-05-08T00:18:24;109325.25;;;18.16;74.00
48555;BME280;34336;48.270;16.716;2023-05-08T00:20:51;109325.25;;;18.16;74.89
48555;BME280;34336;48.270;16.716;2023-05-08T00:23:18;109325.25;;;18.16;75.68
48555;BME280;34336;48.270;16.716;2023-05-08T00:25:47;109325.25;;;18.16;75.02
48555;BME280;34336;48.270;16.716;2023-05-08T00:28:13;109325.25;;;18.16;75.62
48555;BME280;34336;48.270;16.716;2023-05-08T00:30:40;109325.25;;;18.16;75.22
48555;BME280;34336;48.270;16.716;2023-05-08T00:33:08;109325.25;;;18.16;75.76
48555;BME280;34336;48.270;16.716;2023-05-08T00:35:35;109325.25;;;18.16;75.73
48555;BME280;34336;48.270;16.716;2023-05-08T00:38:01;109325.25;;;18.16;75.19
48555;BME280;34336;48.270;16.716;2023-05-08T00:40:28;109325.25;;;18.16;75.49
48555;BME280;34336;48.270;16.716;2023-05-08T00:42:55;109325.25;;;18.16;75.60
48555;BME280;34336;48.270;16.716;2023-05-08T00:45:21;109325.25;;;18.16;75.55
48555;BME280;34336;48.270;16.716;2023-05-08T00:47:48;109325.25;;;18.16;75.66
48555;BME280;34336;48.270;16.716;2023-05-08T00:50:16;109325.25;;;18.16;75.37
48555;BME280;34336;48.270;16.716;2023-05-08T00:52:43;109325.25;;;18.16;75.39
48555;BME280;34336;48.270;16.716;2023-05-08T00:55:10;109325.25;;;18.16;74.89
48555;BME280;34336;48.270;16.716;2023-05-08T00:57:37;109325.25;;;18.16;75.09
48555;BME280;34336;48.270;16.716;2023-05-08T01:00:04;109325.25;;;18.16;75.50
48555;BME280;34336;48.270;16.716;2023-05-08T01:02:31;109325.25;;;18.16;75.31
48555;BME280;34336;48.270;16.716;2023-05-08T01:04:58;109325.25;;;18.16;75.51
48555;BME280;34336;48.270;16.716;2023-05-08T01:07:25;109325.25;;;18.16;75.83
48555;BME280;34336;48.270;16.716;2023-05-08T01:09:52;109325.25;;;18.16;75.64
48555;BME280;34336;48.270;16.716;2023-05-08T01:12:29;109325.25;;;18.16;75.89
48555;BME280;34336;48.270;16.716;2023-05-08T01:41:36;109325.25;;;18.16;79.10
48555;BME280;34336;48.270;16.716;2023-05-08T01:44:11;109325.25;;;18.16;78.27
48555;BME280;34336;48.270;16.716;2023-05-08T01:46:39;109325.25;;;18.16;78.86
48555;BME280;34336;48.270;16.716;2023-05-08T01:49:09;109325.25;;;18.16;78.61
48555;BME280;34336;48.270;16.716;2023-05-08T01:51:40;109325.25;;;18.16;78.93
48555;BME280;34336;48.270;16.716;2023-05-08T01:54:10;109325.25;;;18.16;78.72
48555;BME280;34336;48.270;16.716;2023-05-08T01:56:38;109325.25;;;18.16;78.62
48555;BME280;34336;48.270;16.716;2023-05-08T01:59:05;109325.25;;;18.16;78.91
48555;BME280;34336;48.270;16.716;2023-05-08T02:01:33;109325.25;;;18.16;79.12
48555;BME280;34336;48.270;16.716;2023-05-08T02:04:00;109325.25;;;18.16;78.58
48555;BME280;34336;48.270;16.716;2023-05-08T02:06:28;109325.25;;;18.16;78.80
48555;BME280;34336;48.270;16.716;2023-05-08T02:08:56;109325.25;;;18.16;78.56
48555;BME280;34336;48.270;16.716;2023-05-08T02:11:24;109325.25;;;18.16;78.13
48555;BME280;34336;48.270;16.716;2023-05-08T02:13:51;109325.25;;;18.16;78.64
48555;BME280;34336;48.270;16.716;2023-05-08T02:16:20;109325.25;;;18.16;78.62
48555;BME280;34336;48.270;16.716;2023-05-08T02:18:49;109325.25;;;18.16;78.59
48555;BME280;34336;48.270;16.716;2023-05-08T02:21:16;109325.25;;;18.16;78.36
48555;BME280;34336;48.270;16.716;2023-05-08T02:23:44;109325.25;;;18.16;78.78
48555;BME280;34336;48.270;16.716;2023-05-08T02:26:12;109325.25;;;18.16;78.86
48555;BME280;34336;48.270;16.716;2023-05-08T02:28:40;109325.25;;;18.16;78.34
48555;BME280;34336;48.270;16.716;2023-05-08T02:31:10;109325.25;;;18.16;79.02
48555;BME280;34336;48.270;16.716;2023-05-08T02:33:39;109325.25;;;18.16;79.03
48555;BME280;34336;48.270;16.716;2023-05-08T02:36:07;109325.25;;;18.16;79.09
48555;BME280;34336;48.270;16.716;2023-05-08T02:38:34;109325.25;;;18.16;78.56
48555;BME280;34336;48.270;16.716;2023-05-08T02:41:03;109325.25;;;18.16;78.94
48555;BME280;34336;48.270;16.716;2023-05-08T02:43:31;109325.25;;;18.16;78.92
48555;BME280;34336;48.270;16.716;2023-05-08T02:46:08;109325.25;;;18.16;79.33
48555;BME280;34336;48.270;16.716;2023-05-08T02:48:40;109325.25;;;18.16;79.56
48555;BME280;34336;48.270;16.716;2023-05-08T02:54:13;109325.25;;;18.16;80.05
48555;BME280;34336;48.270;16.716;2023-05-08T02:57:02;109325.25;;;18.16;80.52
48555;BME280;34336;48.270;16.716;2023-05-08T02:59:35;109325.25;;;18.16;80.38
48555;BME280;34336;48.270;16.716;2023-05-08T03:02:08;109325.25;;;18.16;80.65
48555;BME280;34336;48.270;16.716;2023-05-08T03:04:38;109325.25;;;18.16;80.24
48555;BME280;34336;48.270;16.716;2023-05-08T03:07:07;109325.25;;;18.16;80.50
48555;BME280;34336;48.270;16.716;2023-05-08T03:09:36;109325.25;;;18.16;79.64
48555;BME280;34336;48.270;16.716;2023-05-08T03:12:05;109325.25;;;18.16;80.20
48555;BME280;34336;48.270;16.716;2023-05-08T03:14:34;109325.25;;;18.16;79.78
48555;BME280;34336;48.270;16.716;2023-05-08T03:17:03;109325.25;;;18.16;80.51
48555;BME280;34336;48.270;16.716;2023-05-08T03:19:35;109325.25;;;18.16;79.72
48555;BME280;34336;48.270;16.716;2023-05-08T03:22:05;109325.25;;;18.16;79.70
48555;BME280;34336;48.270;16.716;2023-05-08T03:24:33;109325.25;;;18.16;79.82
48555;BME280;34336;48.270;16.716;2023-05-08T03:27:02;109325.25;;;18.16;79.84
48555;BME280;34336;48.270;16.716;2023-05-08T03:29:29;109325.25;;;18.16;79.39
48555;BME280;34336;48.270;16.716;2023-05-08T03:31:57;109325.25;;;18.16;79.54
48555;BME280;34336;48.270;16.716;2023-05-08T03:34:25;109325.25;;;18.16;80.17
48555;BME280;34336;48.270;16.716;2023-05-08T03:36:54;109325.25;;;18.16;79.80
48555;BME280;34336;48.270;16.716;2023-05-08T03:39:21;109325.25;;;18.16;79.56
48555;BME280;34336;48.270;16.716;2023-05-08T03:41:47;109325.25;;;18.16;79.12
48555;BME280;34336;48.270;16.716;2023-05-08T03:44:15;109325.25;;;18.16;77.78
48555;BME280;34336;48.270;16.716;2023-05-08T03:46:41;109325.25;;;18.16;77.58
48555;BME280;34336;48.270;16.716;2023-05-08T03:49:09;109325.25;;;18.16;74.98
48555;BME280;34336;48.270;16.716;2023-05-08T03:51:39;109325.25;;;18.16;69.90
48555;BME280;34336;48.270;16.716;2023-05-08T03:54:06;109325.25;;;18.16;65.73
48555;BME280;34336;48.270;16.716;2023-05-08T03:56:33;109325.25;;;18.16;64.24
48555;BME280;34336;48.270;16.716;2023-05-08T04:01:38;109325.25;;;18.16;59.91
48555;BME280;34336;48.270;16.716;2023-05-08T04:09:26;109325.25;;;18.16;62.18
48555;BME280;34336;48.270;16.716;2023-05-08T04:14:21;109325.25;;;18.16;62.05
48555;BME280;34336;48.270;16.716;2023-05-08T04:16:50;109325.25;;;18.16;60.98
48555;BME280;34336;48.270;16.716;2023-05-08T04:19:23;109325.25;;;18.16;56.48
48555;BME280;34336;48.270;16.716;2023-05-08T04:21:54;109325.25;;;18.16;54.40
48555;BME280;34336;48.270;16.716;2023-05-08T04:24:22;109325.25;;;18.16;51.81
48555;BME280;34336;48.270;16.716;2023-05-08T04:26:50;109325.25;;;18.16;47.53
48555;BME280;34336;48.270;16.716;2023-05-08T04:29:17;109325.25;;;18.16;47.70
48555;BME280;34336;48.270;16.716;2023-05-08T04:31:45;109325.25;;;18.16;47.08
48555;BME280;34336;48.270;16.716;2023-05-08T04:34:12;109325.25;;;18.16;43.77
48555;BME280;34336;48.270;16.716;2023-05-08T04:36:39;109325.25;;;18.16;45.10
48555;BME280;34336;48.270;16.716;2023-05-08T04:39:06;109325.25;;;18.16;44.75
48555;BME280;34336;48.270;16.716;2023-05-08T04:41:33;109325.25;;;18.16;45.81
48555;BME280;34336;48.270;16.716;2023-05-08T04:44:02;109325.25;;;18.16;45.06
48555;BME280;34336;48.270;16.716;2023-05-08T04:46:29;109325.25;;;18.16;42.01
48555;BME280;34336;48.270;16.716;2023-05-08T04:48:56;109325.25;;;18.16;44.14
48555;BME280;34336;48.270;16.716;2023-05-08T04:51:22;109325.25;;;18.16;45.37
48555;BME280;34336;48.270;16.716;2023-05-08T04:53:49;109325.25;;;18.16;44.54
48555;BME280;34336;48.270;16.716;2023-05-08T04:56:16;109325.25;;;18.16;44.12
48555;BME280;34336;48.270;16.716;2023-05-08T04:58:43;109325.25;;;18.16;44.09
48555;BME280;34336;48.270;16.716;2023-05-08T05:01:10;109325.25;;;18.16;41.25
48555;BME280;34336;48.270;16.716;2023-05-08T05:03:36;109325.25;;;18.16;43.16
48555;BME280;34336;48.270;16.716;2023-05-08T05:06:03;109325.25;;;18.16;39.29
48555;BME280;34336;48.270;16.716;2023-05-08T05:08:30;109325.25;;;18.16;39.37
48555;BME280;34336;48.270;16.716;2023-05-08T05:10:57;109325.25;;;18.16;40.99
48555;BME280;34336;48.270;16.716;2023-05-08T05:13:24;109325.25;;;18.16;38.13
48555;BME280;34336;48.270;16.716;2023-05-08T05:15:52;109325.25;;;18.16;38.51
48555;BME280;34336;48.270;16.716;2023-05-08T05:18:21;109325.25;;;18.16;39.80
48555;BME280;34336;48.270;16.716;2023-05-08T05:20:49;109325.25;;;18.16;39.49
48555;BME280;34336;48.270;16.716;2023-05-08T05:23:16;109325.25;;;18.16;39.22
48555;BME280;34336;48.270;16.716;2023-05-08T05:25:43;109325.25;;;18.16;37.94
48555;BME280;34336;48.270;16.716;2023-05-08T05:28:09;109325.25;;;18.16;36.18
48555;BME280;34336;48.270;16.716;2023-05-08T05:30:36;109325.25;;;18.16;36.22
48555;BME280;34336;48.270;16.716;2023-05-08T05:33:03;109325.25;;;18.16;37.45
48555;BME280;34336;48.270;16.716;2023-05-08T05:35:30;109325.25;;;18.16;39.20
48555;BME280;34336;48.270;16.716;2023-05-08T05:37:56;109325.25;;;18.16;35.27
48555;BME280;34336;48.270;16.716;2023-05-08T05:40:23;109325.25;;;18.16;35.67
48555;BME280;34336;48.270;16.716;2023-05-08T05:42:50;109325.25;;;18.16;36.64
48555;BME280;34336;48.270;16.716;2023-05-08T05:45:17;109325.25;;;18.16;35.31
48555;BME280;34336;48.270;16.716;2023-05-08T05:47:45;109325.25;;;18.16;35.63
48555;BME280;34336;48.270;16.716;2023-05-08T05:50:17;109325.25;;;18.16;38.57
48555;BME280;34336;48.270;16.716;2023-05-08T05:52:45;109325.25;;;18.16;39.91
48555;BME280;34336;48.270;16.716;2023-05-08T05:55:12;109325.25;;;18.16;38.33
48555;BME280;34336;48.270;16.716;2023-05-08T05:57:39;109325.25;;;18.16;37.20
48555;BME280;34336;48.270;16.716;2023-05-08T06:00:06;109325.25;;;18.16;39.88
48555;BME280;34336;48.270;16.716;2023-05-08T06:02:39;109325.25;;;18.16;40.55
48555;BME280;34336;48.270;16.716;2023-05-08T06:05:09;109325.25;;;18.16;40.53
48555;BME280;34336;48.270;16.716;2023-05-08T06:07:36;109325.25;;;18.16;40.45
48555;BME280;34336;48.270;16.716;2023-05-08T06:10:03;109325.25;;;18.16;42.88
48555;BME280;34336;48.270;16.716;2023-05-08T06:12:30;109325.25;;;18.16;42.99
48555;BME280;34336;48.270;16.716;2023-05-08T06:14:58;109325.25;;;18.16;45.09
48555;BME280;34336;48.270;16.716;2023-05-08T06:17:25;109325.25;;;18.16;44.16
48555;BME280;34336;48.270;16.716;2023-05-08T06:19:52;109325.25;;;18.16;44.15
48555;BME280;34336;48.270;16.716;2023-05-08T06:22:21;109325.25;;;18.16;44.93
48555;BME280;34336;48.270;16.716;2023-05-08T06:24:49;109325.25;;;18.16;42.42
48555;BME280;34336;48.270;16.716;2023-05-08T06:27:18;109325.25;;;18.16;42.06
48555;BME280;34336;48.270;16.716;2023-05-08T06:29:46;109325.25;;;18.16;44.97
48555;BME280;34336;48.270;16.716;2023-05-08T06:32:13;109325.25;;;18.16;42.30
48555;BME280;34336;48.270;16.716;2023-05-08T06:34:40;109325.25;;;18.16;41.05
48555;BME280;34336;48.270;16.716;2023-05-08T06:37:06;109325.25;;;18.16;41.25
48555;BME280;34336;48.270;16.716;2023-05-08T06:39:33;109325.25;;;18.16;40.68
48555;BME280;34336;48.270;16.716;2023-05-08T06:42:00;109325.25;;;18.16;42.12
48555;BME280;34336;48.270;16.716;2023-05-08T06:44:29;109325.25;;;18.16;42.98
48555;BME280;34336;48.270;16.716;2023-05-08T06:46:56;109325.25;;;18.16;42.27
48555;BME280;34336;48.270;16.716;2023-05-08T06:49:22;109325.25;;;18.16;43.95
48555;BME280;34336;48.270;16.716;2023-05-08T06:51:49;109325.25;;;18.16;42.71
48555;BME280;34336;48.270;16.716;2023-05-08T06:54:16;109325.25;;;18.16;43.70
48555;BME280;34336;48.270;16.716;2023-05-08T06:56:43;109325.25;;;18.16;44.50
48555;BME280;34336;48.270;16.716;2023-05-08T06:59:09;109325.25;;;18.16;44.73
48555;BME280;34336;48.270;16.716;2023-05-08T07:01:36;109325.25;;;18.16;46.37
48555;BME280;34336;48.270;16.716;2023-05-08T07:04:03;109325.25;;;18.16;47.03
48555;BME280;34336;48.270;16.716;2023-05-08T07:06:30;109325.25;;;18.16;44.49
48555;BME280;34336;48.270;16.716;2023-05-08T07:08:57;109325.25;;;18.16;43.51
48555;BME280;34336;48.270;16.716;2023-05-08T07:11:23;109325.25;;;18.16;45.82
48555;BME280;34336;48.270;16.716;2023-05-08T07:13:50;109325.25;;;18.16;46.11
48555;BME280;34336;48.270;16.716;2023-05-08T07:16:16;109325.25;;;18.16;46.99
48555;BME280;34336;48.270;16.716;2023-05-08T07:18:43;109325.25;;;18.16;44.60
48555;BME280;34336;48.270;16.716;2023-05-08T07:21:10;109325.25;;;18.16;46.90
48555;BME280;34336;48.270;16.716;2023-05-08T07:23:36;109325.25;;;18.16;46.94
48555;BME280;34336;48.270;16.716;2023-05-08T07:26:03;109325.25;;;18.16;48.09
48555;BME280;34336;48.270;16.716;2023-05-08T07:28:29;109325.25;;;18.16;48.03
48555;BME280;34336;48.270;16.716;2023-05-08T07:30:56;109325.25;;;18.16;46.50
48555;BME280;34336;48.270;16.716;2023-05-08T07:33:23;109325.25;;;18.16;44.36
48555;BME280;34336;48.270;16.716;2023-05-08T07:35:49;109325.25;;;18.16;45.62
48555;BME280;34336;48.270;16.716;2023-05-08T07:38:16;109325.25;;;18.16;46.35
48555;BME280;34336;48.270;16.716;2023-05-08T07:40:42;109325.25;;;18.16;47.38
48555;BME280;34336;48.270;16.716;2023-05-08T07:43:09;109325.25;;;18.16;47.66
48555;BME280;34336;48.270;16.716;2023-05-08T07:45:35;109325.25;;;18.16;46.82
48555;BME280;34336;48.270;16.716;2023-05-08T07:48:02;109325.25;;;18.16;45.87
48555;BME280;34336;48.270;16.716;2023-05-08T07:50:29;109325.25;;;18.16;45.54
48555;BME280;34336;48.270;16.716;2023-05-08T07:52:55;109325.25;;;18.16;44.45
48555;BME280;34336;48.270;16.716;2023-05-08T07:55:22;109325.25;;;18.16;44.22
48555;BME280;34336;48.270;16.716;2023-05-08T07:57:49;109325.25;;;18.16;45.71
48555;BME280;34336;48.270;16.716;2023-05-08T08:00:15;109325.25;;;18.16;45.12
48555;BME280;34336;48.270;16.716;2023-05-08T08:02:42;109325.25;;;18.16;43.91
48555;BME280;34336;48.270;16.716;2023-05-08T08:05:10;109325.25;;;18.16;42.44
48555;BME280;34336;48.270;16.716;2023-05-08T08:07:37;109325.25;;;18.16;44.28
48555;BME280;34336;48.270;16.716;2023-05-08T08:10:04;109325.25;;;18.16;42.92
48555;BME280;34336;48.270;16.716;2023-05-08T08:12:31;109325.25;;;18.16;43.22
48555;BME280;34336;48.270;16.716;2023-05-08T08:14:57;109325.25;;;18.16;42.01
48555;BME280;34336;48.270;16.716;2023-05-08T08:17:24;109325.25;;;18.16;43.62
48555;BME280;34336;48.270;16.716;2023-05-08T08:19:54;109325.25;;;18.16;43.72
48555;BME280;34336;48.270;16.716;2023-05-08T08:22:20;109325.25;;;18.16;42.84
48555;BME280;34336;48.270;16.716;2023-05-08T08:24:47;109325.25;;;18.16;42.01
48555;BME280;34336;48.270;16.716;2023-05-08T08:27:14;109325.25;;;18.16;42.23
48555;BME280;34336;48.270;16.716;2023-05-08T08:29:40;109325.25;;;18.16;43.30
48555;BME280;34336;48.270;16.716;2023-05-08T08:32:07;109325.25;;;18.16;44.51
48555;BME280;34336;48.270;16.716;2023-05-08T08:34:33;109325.25;;;18.16;44.99
48555;BME280;34336;48.270;16.716;2023-05-08T08:37:00;109325.25;;;18.16;45.30
48555;BME280;34336;48.270;16.716;2023-05-08T08:39:30;109325.25;;;18.16;45.41
48555;BME280;34336;48.270;16.716;2023-05-08T08:41:57;109325.25;;;18.16;42.91
48555;BME280;34336;48.270;16.716;2023-05-08T08:44:24;109325.25;;;18.16;42.93
48555;BME280;34336;48.270;16.716;2023-05-08T08:46:50;109325.25;;;18.16;43.27
48555;BME280;34336;48.270;16.716;2023-05-08T08:49:18;109325.25;;;18.16;44.31
48555;BME280;34336;48.270;16.716;2023-05-08T08:51:50;109325.25;;;18.16;44.94
48555;BME280;34336;48.270;16.716;2023-05-08T08:54:19;109325.25;;;18.16;44.81
48555;BME280;34336;48.270;16.716;2023-05-08T08:56:47;109325.25;;;18.16;45.11
48555;BME280;34336;48.270;16.716;2023-05-08T08:59:14;109325.25;;;18.16;44.32
48555;BME280;34336;48.270;16.716;2023-05-08T09:01:43;109325.25;;;18.16;44.96
48555;BME280;34336;48.270;16.716;2023-05-08T09:04:10;109325.25;;;18.16;44.22
48555;BME280;34336;48.270;16.716;2023-05-08T09:06:37;109325.25;;;18.16;43.28
48555;BME280;34336;48.270;16.716;2023-05-08T09:09:04;109325.25;;;18.16;43.58
48555;BME280;34336;48.270;16.716;2023-05-08T09:11:31;109325.25;;;18.16;43.91
48555;BME280;34336;48.270;16.716;2023-05-08T09:13:57;109325.25;;;18.16;45.35
48555;BME280;34336;48.270;16.716;2023-05-08T09:16:24;109325.25;;;18.16;41.18
48555;BME280;34336;48.270;16.716;2023-05-08T09:18:51;109325.25;;;18.16;39.92
48555;BME280;34336;48.270;16.716;2023-05-08T09:21:17;109325.25;;;18.16;40.71
48555;BME280;34336;48.270;16.716;2023-05-08T09:24:01;109325.25;;;18.16;41.63
48555;BME280;34336;48.270;16.716;2023-05-08T09:26:31;109325.25;;;18.16;43.88
48555;BME280;34336;48.270;16.716;2023-05-08T09:29:08;109325.25;;;18.16;44.22
48555;BME280;34336;48.270;16.716;2023-05-08T09:31:35;109325.25;;;18.16;44.01
48555;BME280;34336;48.270;16.716;2023-05-08T09:34:05;109325.25;;;18.16;44.37
48555;BME280;34336;48.270;16.716;2023-05-08T09:36:32;109325.25;;;18.16;44.78
48555;BME280;34336;48.270;16.716;2023-05-08T09:39:00;109325.25;;;18.16;43.91
48555;BME280;34336;48.270;16.716;2023-05-08T09:41:27;109325.25;;;18.16;42.47
48555;BME280;34336;48.270;16.716;2023-05-08T09:44:02;109325.25;;;18.16;41.45
48555;BME280;34336;48.270;16.716;2023-05-08T09:46:29;109325.25;;;18.16;42.59
48555;BME280;34336;48.270;16.716;2023-05-08T09:48:57;109325.25;;;18.16;44.18
48555;BME280;34336;48.270;16.716;2023-05-08T09:51:24;109325.25;;;18.16;42.97
48555;BME280;34336;48.270;16.716;2023-05-08T09:53:52;109325.25;;;18.16;43.54
48555;BME280;34336;48.270;16.716;2023-05-08T09:56:32;109325.25;;;18.16;43.85
48555;BME280;34336;48.270;16.716;2023-05-08T09:59:00;109325.25;;;18.16;42.53
48555;BME280;34336;48.270;16.716;2023-05-08T10:01:31;109325.25;;;18.16;43.96
48555;BME280;34336;48.270;16.716;2023-05-08T10:03:58;109325.25;;;18.16;43.80
48555;BME280;34336;48.270;16.716;2023-05-08T10:06:25;109325.25;;;18.16;41.80
48555;BME280;34336;48.270;16.716;2023-05-08T10:09:11;109325.25;;;18.16;41.57
48555;BME280;34336;48.270;16.716;2023-05-08T10:11:39;109325.25;;;18.16;42.53
48555;BME280;34336;48.270;16.716;2023-05-08T10:14:05;109325.25;;;18.16;40.23
48555;BME280;34336;48.270;16.716;2023-05-08T10:16:38;109325.25;;;18.16;42.01
48555;BME280;34336;48.270;16.716;2023-05-08T10:19:14;109325.25;;;18.16;43.88
48555;BME280;34336;48.270;16.716;2023-05-08T10:21:41;109325.25;;;18.16;43.51
48555;BME280;34336;48.270;16.716;2023-05-08T10:24:14;109325.25;;;18.16;42.17
48555;BME280;34336;48.270;16.716;2023-05-08T10:26:42;109325.25;;;18.16;41.86
48555;BME280;34336;48.270;16.716;2023-05-08T10:29:33;109325.25;;;18.16;41.97
48555;BME280;34336;48.270;16.716;2023-05-08T10:32:03;109325.25;;;18.16;42.48
48555;BME280;34336;48.270;16.716;2023-05-08T10:34:33;109325.25;;;18.16;43.06
48555;BME280;34336;48.270;16.716;2023-05-08T10:37:00;109325.25;;;18.16;41.40
48555;BME280;34336;48.270;16.716;2023-05-08T10:39:27;109325.25;;;18.16;42.54
48555;BME280;34336;48.270;16.716;2023-05-08T10:41:54;109325.25;;;18.16;41.49
48555;BME280;34336;48.270;16.716;2023-05-08T10:44:20;109325.25;;;18.16;43.98
48555;BME280;34336;48.270;16.716;2023-05-08T10:52:06;109325.25;;;18.16;43.01
48555;BME280;34336;48.270;16.716;2023-05-08T10:54:37;109325.25;;;18.16;44.31
48555;BME280;34336;48.270;16.716;2023-05-08T10:57:08;109325.25;;;18.16;46.07
48555;BME280;34336;48.270;16.716;2023-05-08T10:59:36;109325.25;;;18.16;43.59
48555;BME280;34336;48.270;16.716;2023-05-08T11:02:06;109325.25;;;18.16;43.49
48555;BME280;34336;48.270;16.716;2023-05-08T11:04:33;109325.25;;;18.16;41.87
48555;BME280;34336;48.270;16.716;2023-05-08T11:07:00;109325.25;;;18.16;42.08
48555;BME280;34336;48.270;16.716;2023-05-08T11:09:48;109325.25;;;18.16;41.71
48555;BME280;34336;48.270;16.716;2023-05-08T11:14:43;109325.25;;;18.16;42.19
48555;BME280;34336;48.270;16.716;2023-05-08T11:17:21;109325.25;;;18.16;42.23
48555;BME280;34336;48.270;16.716;2023-05-08T11:19:55;109325.25;;;18.16;44.50
48555;BME280;34336;48.270;16.716;2023-05-08T11:22:24;109325.25;;;18.16;43.64
48555;BME280;34336;48.270;16.716;2023-05-08T11:27:37;109325.25;;;18.16;41.54
48555;BME280;34336;48.270;16.716;2023-05-08T11:33:12;109325.25;;;18.16;41.38
48555;BME280;34336;48.270;16.716;2023-05-08T11:35:40;109325.25;;;18.16;39.38
48555;BME280;34336;48.270;16.716;2023-05-08T11:38:10;109325.25;;;18.16;41.34
48555;BME280;34336;48.270;16.716;2023-05-08T11:40:43;109325.25;;;18.16;42.42
48555;BME280;34336;48.270;16.716;2023-05-08T11:45:55;109325.25;;;18.16;45.14
48555;BME280;34336;48.270;16.716;2023-05-08T11:48:25;109325.25;;;18.16;45.66
48555;BME280;34336;48.270;16.716;2023-05-08T11:50:51;109325.25;;;18.16;43.98
48555;BME280;34336;48.270;16.716;2023-05-08T11:53:18;109325.25;;;18.16;44.45
48555;BME280;34336;48.270;16.716;2023-05-08T11:55:48;109325.25;;;18.16;42.69
48555;BME280;34336;48.270;16.716;2023-05-08T11:58:15;109325.25;;;18.16;41.16
48555;BME280;34336;48.270;16.716;2023-05-08T12:00:42;109325.25;;;18.16;43.80
48555;BME280;34336;48.270;16.716;2023-05-08T12:03:16;109325.25;;;18.16;42.06
48555;BME280;34336;48.270;16.716;2023-05-08T12:05:43;109325.25;;;18.16;42.43
48555;BME280;34336;48.270;16.716;2023-05-08T12:08:11;109325.25;;;18.16;39.65
48555;BME280;34336;48.270;16.716;2023-05-08T12:10:51;109325.25;;;18.16;40.92
48555;BME280;34336;48.270;16.716;2023-05-08T12:13:24;109325.25;;;18.16;41.38
48555;BME280;34336;48.270;16.716;2023-05-08T12:15:53;109325.25;;;18.16;39.66
48555;BME280;34336;48.270;16.716;2023-05-08T12:18:20;109325.25;;;18.16;39.72
48555;BME280;34336;48.270;16.716;2023-05-08T12:20:51;109325.25;;;18.16;42.77
48555;BME280;34336;48.270;16.716;2023-05-08T12:23:18;109325.25;;;18.16;40.92
48555;BME280;34336;48.270;16.716;2023-05-08T12:25:45;109325.25;;;18.16;41.61
48555;BME280;34336;48.270;16.716;2023-05-08T12:28:11;109325.25;;;18.16;38.79
48555;BME280;34336;48.270;16.716;2023-05-08T12:30:38;109325.25;;;18.16;39.41
48555;BME280;34336;48.270;16.716;2023-05-08T12:33:05;109325.25;;;18.16;39.18
48555;BME280;34336;48.270;16.716;2023-05-08T12:35:32;109325.25;;;18.16;39.65
48555;BME280;34336;48.270;16.716;2023-05-08T12:38:02;109325.25;;;18.16;40.72
48555;BME280;34336;48.270;16.716;2023-05-08T12:40:30;109325.25;;;18.16;40.55
48555;BME280;34336;48.270;16.716;2023-05-08T12:42:59;109325.25;;;18.16;39.90
48555;BME280;34336;48.270;16.716;2023-05-08T12:45:27;109325.25;;;18.16;38.97
48555;BME280;34336;48.270;16.716;2023-05-08T12:47:57;109325.25;;;18.16;39.10
48555;BME280;34336;48.270;16.716;2023-05-08T12:50:24;109325.25;;;18.16;38.58
48555;BME280;34336;48.270;16.716;2023-05-08T12:52:51;109325.25;;;18.16;39.42
48555;BME280;34336;48.270;16.716;2023-05-08T12:55:19;109325.25;;;18.16;40.40
48555;BME280;34336;48.270;16.716;2023-05-08T12:57:45;109325.25;;;18.16;40.80
48555;BME280;34336;48.270;16.716;2023-05-08T13:00:14;109325.25;;;18.16;40.32
48555;BME280;34336;48.270;16.716;2023-05-08T13:02:51;109325.25;;;18.16;39.45
48555;BME280;34336;48.270;16.716;2023-05-08T13:05:19;109325.25;;;18.16;40.75
48555;BME280;34336;48.270;16.716;2023-05-08T13:07:46;109325.25;;;18.16;40.73
48555;BME280;34336;48.270;16.716;2023-05-08T13:10:12;109325.25;;;18.16;40.95
48555;BME280;34336;48.270;16.716;2023-05-08T13:12:39;109325.25;;;18.16;40.19
48555;BME280;34336;48.270;16.716;2023-05-08T13:15:06;109325.25;;;18.16;39.46
48555;BME280;34336;48.270;16.716;2023-05-08T13:17:33;109325.25;;;18.16;40.67
48555;BME280;34336;48.270;16.716;2023-05-08T13:19:59;109325.25;;;18.16;40.29
48555;BME280;34336;48.270;16.716;2023-05-08T13:22:31;109325.25;;;18.16;39.46
48555;BME280;34336;48.270;16.716;2023-05-08T13:24:58;109325.25;;;18.16;40.56
48555;BME280;34336;48.270;16.716;2023-05-08T13:27:24;109325.25;;;18.16;39.13
48555;BME280;34336;48.270;16.716;2023-05-08T13:29:51;109325.25;;;18.16;38.90
48555;BME280;34336;48.270;16.716;2023-05-08T13:32:17;109325.25;;;18.16;42.74
48555;BME280;34336;48.270;16.716;2023-05-08T13:34:44;109325.25;;;18.16;40.61
48555;BME280;34336;48.270;16.716;2023-05-08T13:37:16;109325.25;;;18.16;38.84
48555;BME280;34336;48.270;16.716;2023-05-08T13:39:43;109325.25;;;18.16;40.26
48555;BME280;34336;48.270;16.716;2023-05-08T13:42:09;109325.25;;;18.16;39.29